sensor_id;sensor_type;location;lat;lon;timestamp;P1;durP1;ratioP1;P2;durP2;ratioP2
39486;SDS011;25173;50.430;18.926;2022-07-29T00:00:49;11.75;;;4.10;;
39486;SDS011;25173;50.430;18.926;2022-07-29T00:03:49;6.20;;;3.55;;
39486;SDS011;25173;50.430;18.926;2022-07-29T00:06:50;11.57;;;4.05;;
39486;SDS011;25173;50.430;18.926;2022-07-29T00:09:51;8.65;;;3.80;;
39486;SDS011;25173;50.430;18.926;2022-07-29T00:12:51;5.50;;;3.78;;
39486;SDS011;25173;50.430;18.926;2022-07-29T00:15:52;7.95;;;3.60;;
39486;SDS011;25173;50.430;18.926;2022-07-29T00:18:53;8.90;;;3.72;;
39486;SDS011;25173;50.430;18.926;2022-07-29T00:21:53;9.20;;;3.65;;
39486;SDS011;25173;50.430;18.926;2022-07-29T00:24:54;12.13;;;3.47;;
39486;SDS011;25173;50.430;18.926;2022-07-29T00:27:55;7.97;;;3.90;;
39486;SDS011;25173;50.430;18.926;2022-07-29T00:30:55;6.57;;;4.15;;
39486;SDS011;25173;50.430;18.926;2022-07-29T00:33:56;14.63;;;3.50;;
39486;SDS011;25173;50.430;18.926;2022-07-29T00:36:57;5.97;;;3.50;;
39486;SDS011;25173;50.430;18.926;2022-07-29T00:39:57;6.97;;;3.35;;
39486;SDS011;25173;50.430;18.926;2022-07-29T00:42:59;6.60;;;4.03;;
39486;SDS011;25173;50.430;18.926;2022-07-29T00:45:59;12.32;;;3.65;;
39486;SDS011;25173;50.430;18.926;2022-07-29T00:49:00;7.28;;;3.65;;
39486;SDS011;25173;50.430;18.926;2022-07-29T00:52:02;7.57;;;3.42;;
39486;SDS011;25173;50.430;18.926;2022-07-29T00:55:04;5.63;;;3.45;;
39486;SDS011;25173;50.430;18.926;2022-07-29T00:58:06;8.68;;;3.95;;
39486;SDS011;25173;50.430;18.926;2022-07-29T01:01:07;6.32;;;3.42;;
39486;SDS011;25173;50.430;18.926;2022-07-29T01:04:08;14.35;;;3.70;;
39486;SDS011;25173;50.430;18.926;2022-07-29T01:07:09;6.20;;;3.22;;
39486;SDS011;25173;50.430;18.926;2022-07-29T01:10:10;6.05;;;3.47;;
39486;SDS011;25173;50.430;18.926;2022-07-29T01:13:14;6.80;;;2.70;;
39486;SDS011;25173;50.430;18.926;2022-07-29T01:16:27;10.98;;;3.63;;
39486;SDS011;25173;50.430;18.926;2022-07-29T01:29:21;10.50;;;3.97;;
39486;SDS011;25173;50.430;18.926;2022-07-29T01:32:29;6.55;;;3.53;;
39486;SDS011;25173;50.430;18.926;2022-07-29T01:35:39;5.00;;;3.83;;
39486;SDS011;25173;50.430;18.926;2022-07-29T01:38:42;5.38;;;3.53;;
39486;SDS011;25173;50.430;18.926;2022-07-29T01:41:48;4.75;;;3.17;;
39486;SDS011;25173;50.430;18.926;2022-07-29T01:45:00;6.45;;;3.50;;
39486;SDS011;25173;50.430;18.926;2022-07-29T01:48:11;9.52;;;3.35;;
39486;SDS011;25173;50.430;18.926;2022-07-29T01:51:18;8.13;;;3.40;;
39486;SDS011;25173;50.430;18.926;2022-07-29T01:54:25;6.13;;;3.17;;
39486;SDS011;25173;50.430;18.926;2022-07-29T01:57:31;5.45;;;3.40;;
39486;SDS011;25173;50.430;18.926;2022-07-29T02:00:35;9.52;;;3.55;;
39486;SDS011;25173;50.430;18.926;2022-07-29T02:03:37;8.30;;;2.90;;
39486;SDS011;25173;50.430;18.926;2022-07-29T02:06:40;5.93;;;3.03;;
39486;SDS011;25173;50.430;18.926;2022-07-29T02:09:42;4.63;;;2.97;;
39486;SDS011;25173;50.430;18.926;2022-07-29T02:12:46;8.60;;;2.75;;
39486;SDS011;25173;50.430;18.926;2022-07-29T02:15:48;4.63;;;2.67;;
39486;SDS011;25173;50.430;18.926;2022-07-29T02:18:52;5.35;;;2.60;;
39486;SDS011;25173;50.430;18.926;2022-07-29T02:21:54;7.90;;;3.15;;
39486;SDS011;25173;50.430;18.926;2022-07-29T02:24:58;4.20;;;2.53;;
39486;SDS011;25173;50.430;18.926;2022-07-29T02:27:59;4.35;;;2.33;;
39486;SDS011;25173;50.430;18.926;2022-07-29T02:31:01;7.35;;;2.78;;
39486;SDS011;25173;50.430;18.926;2022-07-29T02:34:05;3.50;;;2.60;;
39486;SDS011;25173;50.430;18.926;2022-07-29T02:37:11;6.53;;;2.55;;
39486;SDS011;25173;50.430;18.926;2022-07-29T02:40:13;5.65;;;2.28;;
39486;SDS011;25173;50.430;18.926;2022-07-29T02:43:15;9.65;;;3.25;;
39486;SDS011;25173;50.430;18.926;2022-07-29T02:46:20;4.43;;;2.80;;
39486;SDS011;25173;50.430;18.926;2022-07-29T02:52:53;6.20;;;2.45;;
39486;SDS011;25173;50.430;18.926;2022-07-29T02:56:04;2.78;;;2.50;;
39486;SDS011;25173;50.430;18.926;2022-07-29T02:59:10;5.22;;;2.65;;
39486;SDS011;25173;50.430;18.926;2022-07-29T03:02:13;8.20;;;2.35;;
39486;SDS011;25173;50.430;18.926;2022-07-29T03:05:17;3.17;;;2.13;;
39486;SDS011;25173;50.430;18.926;2022-07-29T03:08:20;5.00;;;2.33;;
39486;SDS011;25173;50.430;18.926;2022-07-29T03:11:22;3.83;;;2.47;;
39486;SDS011;25173;50.430;18.926;2022-07-29T03:14:23;3.65;;;2.35;;
39486;SDS011;25173;50.430;18.926;2022-07-29T03:17:24;12.55;;;3.03;;
39486;SDS011;25173;50.430;18.926;2022-07-29T03:20:25;5.70;;;2.08;;
39486;SDS011;25173;50.430;18.926;2022-07-29T03:23:26;4.22;;;2.22;;
39486;SDS011;25173;50.430;18.926;2022-07-29T03:26:28;7.57;;;2.47;;
39486;SDS011;25173;50.430;18.926;2022-07-29T03:29:29;4.57;;;2.60;;
39486;SDS011;25173;50.430;18.926;2022-07-29T03:32:30;2.75;;;2.28;;
39486;SDS011;25173;50.430;18.926;2022-07-29T03:35:31;4.90;;;2.42;;
39486;SDS011;25173;50.430;18.926;2022-07-29T03:38:34;4.22;;;2.65;;
39486;SDS011;25173;50.430;18.926;2022-07-29T03:41:36;3.78;;;2.38;;
39486;SDS011;25173;50.430;18.926;2022-07-29T03:44:40;9.55;;;3.42;;
39486;SDS011;25173;50.430;18.926;2022-07-29T03:47:44;4.90;;;1.90;;
39486;SDS011;25173;50.430;18.926;2022-07-29T03:50:47;3.08;;;2.40;;
39486;SDS011;25173;50.430;18.926;2022-07-29T03:53:50;3.92;;;2.28;;
39486;SDS011;25173;50.430;18.926;2022-07-29T03:56:51;2.83;;;1.95;;
39486;SDS011;25173;50.430;18.926;2022-07-29T03:59:53;2.83;;;1.90;;
39486;SDS011;25173;50.430;18.926;2022-07-29T04:02:55;3.55;;;1.88;;
39486;SDS011;25173;50.430;18.926;2022-07-29T04:05:57;2.53;;;1.88;;
39486;SDS011;25173;50.430;18.926;2022-07-29T04:09:02;6.97;;;2.03;;
39486;SDS011;25173;50.430;18.926;2022-07-29T04:12:03;4.38;;;1.77;;
39486;SDS011;25173;50.430;18.926;2022-07-29T04:15:04;4.20;;;1.90;;
39486;SDS011;25173;50.430;18.926;2022-07-29T04:18:05;7.53;;;2.28;;
39486;SDS011;25173;50.430;18.926;2022-07-29T04:21:06;6.30;;;2.30;;
39486;SDS011;25173;50.430;18.926;2022-07-29T04:24:07;5.20;;;1.83;;
39486;SDS011;25173;50.430;18.926;2022-07-29T04:27:08;7.40;;;2.38;;
39486;SDS011;25173;50.430;18.926;2022-07-29T04:30:09;5.90;;;1.70;;
39486;SDS011;25173;50.430;18.926;2022-07-29T04:33:09;6.75;;;1.75;;
39486;SDS011;25173;50.430;18.926;2022-07-29T04:36:10;2.63;;;1.70;;
39486;SDS011;25173;50.430;18.926;2022-07-29T04:39:11;5.53;;;2.13;;
39486;SDS011;25173;50.430;18.926;2022-07-29T04:42:12;7.60;;;2.00;;
39486;SDS011;25173;50.430;18.926;2022-07-29T04:45:12;6.40;;;2.20;;
39486;SDS011;25173;50.430;18.926;2022-07-29T04:48:13;4.68;;;1.77;;
39486;SDS011;25173;50.430;18.926;2022-07-29T04:51:14;4.57;;;1.75;;
39486;SDS011;25173;50.430;18.926;2022-07-29T04:54:15;5.65;;;1.85;;
39486;SDS011;25173;50.430;18.926;2022-07-29T04:57:16;6.53;;;1.60;;
39486;SDS011;25173;50.430;18.926;2022-07-29T05:00:17;4.88;;;1.60;;
39486;SDS011;25173;50.430;18.926;2022-07-29T05:03:18;3.38;;;1.65;;
39486;SDS011;25173;50.430;18.926;2022-07-29T05:06:18;3.58;;;1.70;;
39486;SDS011;25173;50.430;18.926;2022-07-29T05:09:19;2.78;;;1.70;;
39486;SDS011;25173;50.430;18.926;2022-07-29T05:12:20;12.05;;;1.85;;
39486;SDS011;25173;50.430;18.926;2022-07-29T05:15:20;8.32;;;2.05;;
39486;SDS011;25173;50.430;18.926;2022-07-29T05:18:21;4.93;;;1.95;;
39486;SDS011;25173;50.430;18.926;2022-07-29T05:21:21;5.70;;;2.40;;
39486;SDS011;25173;50.430;18.926;2022-07-29T05:24:22;5.28;;;2.15;;
39486;SDS011;25173;50.430;18.926;2022-07-29T05:27:23;6.70;;;1.40;;
39486;SDS011;25173;50.430;18.926;2022-07-29T05:30:24;5.15;;;1.40;;
39486;SDS011;25173;50.430;18.926;2022-07-29T05:33:25;4.10;;;1.40;;
39486;SDS011;25173;50.430;18.926;2022-07-29T05:36:26;3.65;;;1.48;;
39486;SDS011;25173;50.430;18.926;2022-07-29T05:39:26;6.47;;;1.50;;
39486;SDS011;25173;50.430;18.926;2022-07-29T05:42:27;1.95;;;1.33;;
39486;SDS011;25173;50.430;18.926;2022-07-29T05:45:29;4.35;;;1.73;;
39486;SDS011;25173;50.430;18.926;2022-07-29T05:48:29;2.70;;;1.40;;
39486;SDS011;25173;50.430;18.926;2022-07-29T05:51:30;5.50;;;1.80;;
39486;SDS011;25173;50.430;18.926;2022-07-29T05:54:31;2.13;;;1.40;;
39486;SDS011;25173;50.430;18.926;2022-07-29T05:57:32;5.07;;;1.60;;
39486;SDS011;25173;50.430;18.926;2022-07-29T06:00:32;3.88;;;1.50;;
39486;SDS011;25173;50.430;18.926;2022-07-29T06:03:33;3.22;;;1.45;;
39486;SDS011;25173;50.430;18.926;2022-07-29T06:06:34;2.83;;;1.45;;
39486;SDS011;25173;50.430;18.926;2022-07-29T06:09:35;2.60;;;1.38;;
39486;SDS011;25173;50.430;18.926;2022-07-29T06:12:36;5.20;;;1.90;;
39486;SDS011;25173;50.430;18.926;2022-07-29T06:15:37;3.00;;;1.67;;
39486;SDS011;25173;50.430;18.926;2022-07-29T06:18:37;4.13;;;1.55;;
39486;SDS011;25173;50.430;18.926;2022-07-29T06:21:42;6.90;;;1.70;;
39486;SDS011;25173;50.430;18.926;2022-07-29T06:24:43;9.18;;;1.70;;
39486;SDS011;25173;50.430;18.926;2022-07-29T06:27:44;4.97;;;1.67;;
39486;SDS011;25173;50.430;18.926;2022-07-29T06:30:45;3.65;;;1.52;;
39486;SDS011;25173;50.430;18.926;2022-07-29T06:33:46;4.07;;;1.63;;
39486;SDS011;25173;50.430;18.926;2022-07-29T06:36:46;7.22;;;1.60;;
39486;SDS011;25173;50.430;18.926;2022-07-29T06:39:47;2.70;;;1.60;;
39486;SDS011;25173;50.430;18.926;2022-07-29T06:42:48;2.03;;;1.55;;
39486;SDS011;25173;50.430;18.926;2022-07-29T06:45:48;4.63;;;1.92;;
39486;SDS011;25173;50.430;18.926;2022-07-29T06:48:49;7.88;;;2.00;;
39486;SDS011;25173;50.430;18.926;2022-07-29T06:51:51;5.07;;;1.75;;
39486;SDS011;25173;50.430;18.926;2022-07-29T06:54:52;9.52;;;2.45;;
39486;SDS011;25173;50.430;18.926;2022-07-29T06:57:53;5.10;;;1.83;;
39486;SDS011;25173;50.430;18.926;2022-07-29T07:00:54;3.63;;;1.67;;
39486;SDS011;25173;50.430;18.926;2022-07-29T07:03:56;5.47;;;2.45;;
39486;SDS011;25173;50.430;18.926;2022-07-29T07:06:57;5.75;;;1.80;;
39486;SDS011;25173;50.430;18.926;2022-07-29T07:09:58;6.45;;;1.83;;
39486;SDS011;25173;50.430;18.926;2022-07-29T07:12:59;5.93;;;1.95;;
39486;SDS011;25173;50.430;18.926;2022-07-29T07:16:01;3.60;;;1.98;;
39486;SDS011;25173;50.430;18.926;2022-07-29T07:19:02;17.65;;;2.42;;
39486;SDS011;25173;50.430;18.926;2022-07-29T07:22:03;3.38;;;2.25;;
39486;SDS011;25173;50.430;18.926;2022-07-29T07:25:03;3.60;;;1.88;;
39486;SDS011;25173;50.430;18.926;2022-07-29T07:28:04;6.63;;;2.22;;
39486;SDS011;25173;50.430;18.926;2022-07-29T07:31:05;4.35;;;1.90;;
39486;SDS011;25173;50.430;18.926;2022-07-29T07:34:10;9.52;;;2.25;;
39486;SDS011;25173;50.430;18.926;2022-07-29T07:37:10;2.13;;;1.43;;
39486;SDS011;25173;50.430;18.926;2022-07-29T07:40:11;7.28;;;1.67;;
39486;SDS011;25173;50.430;18.926;2022-07-29T07:43:19;6.70;;;2.10;;
39486;SDS011;25173;50.430;18.926;2022-07-29T07:46:20;4.80;;;1.50;;
39486;SDS011;25173;50.430;18.926;2022-07-29T07:49:21;4.47;;;2.58;;
39486;SDS011;25173;50.430;18.926;2022-07-29T07:52:21;4.43;;;1.52;;
39486;SDS011;25173;50.430;18.926;2022-07-29T07:55:22;5.30;;;1.80;;
39486;SDS011;25173;50.430;18.926;2022-07-29T07:58:23;3.95;;;1.80;;
39486;SDS011;25173;50.430;18.926;2022-07-29T08:01:24;7.15;;;2.63;;
39486;SDS011;25173;50.430;18.926;2022-07-29T08:04:25;5.30;;;2.42;;
39486;SDS011;25173;50.430;18.926;2022-07-29T08:07:26;1.83;;;1.60;;
39486;SDS011;25173;50.430;18.926;2022-07-29T08:10:26;5.50;;;1.90;;
39486;SDS011;25173;50.430;18.926;2022-07-29T08:13:46;6.55;;;1.88;;
39486;SDS011;25173;50.430;18.926;2022-07-29T08:16:47;3.13;;;1.67;;
39486;SDS011;25173;50.430;18.926;2022-07-29T08:19:48;5.88;;;2.22;;
39486;SDS011;25173;50.430;18.926;2022-07-29T08:22:50;5.85;;;2.10;;
39486;SDS011;25173;50.430;18.926;2022-07-29T08:25:50;4.68;;;1.90;;
39486;SDS011;25173;50.430;18.926;2022-07-29T08:28:51;5.22;;;2.10;;
39486;SDS011;25173;50.430;18.926;2022-07-29T08:31:52;6.60;;;1.70;;
39486;SDS011;25173;50.430;18.926;2022-07-29T08:34:52;10.85;;;2.25;;
39486;SDS011;25173;50.430;18.926;2022-07-29T08:37:53;3.83;;;2.22;;
39486;SDS011;25173;50.430;18.926;2022-07-29T08:40:54;5.45;;;2.08;;
39486;SDS011;25173;50.430;18.926;2022-07-29T08:43:55;5.85;;;2.00;;
39486;SDS011;25173;50.430;18.926;2022-07-29T08:46:56;9.02;;;2.17;;
39486;SDS011;25173;50.430;18.926;2022-07-29T08:49:57;8.95;;;2.67;;
39486;SDS011;25173;50.430;18.926;2022-07-29T08:52:57;7.72;;;2.17;;
39486;SDS011;25173;50.430;18.926;2022-07-29T08:55:58;4.75;;;2.00;;
39486;SDS011;25173;50.430;18.926;2022-07-29T08:59:01;4.85;;;2.00;;
39486;SDS011;25173;50.430;18.926;2022-07-29T09:02:04;3.08;;;1.80;;
39486;SDS011;25173;50.430;18.926;2022-07-29T09:05:08;2.53;;;1.65;;
39486;SDS011;25173;50.430;18.926;2022-07-29T09:08:09;5.78;;;1.60;;
39486;SDS011;25173;50.430;18.926;2022-07-29T09:11:11;3.90;;;2.03;;
39486;SDS011;25173;50.430;18.926;2022-07-29T09:14:14;5.13;;;2.25;;
39486;SDS011;25173;50.430;18.926;2022-07-29T09:17:15;5.55;;;2.08;;
39486;SDS011;25173;50.430;18.926;2022-07-29T09:20:18;3.90;;;2.22;;
39486;SDS011;25173;50.430;18.926;2022-07-29T09:23:20;6.65;;;2.40;;
39486;SDS011;25173;50.430;18.926;2022-07-29T09:26:22;8.30;;;2.78;;
39486;SDS011;25173;50.430;18.926;2022-07-29T09:29:28;5.53;;;2.05;;
39486;SDS011;25173;50.430;18.926;2022-07-29T09:32:29;9.75;;;2.60;;
39486;SDS011;25173;50.430;18.926;2022-07-29T09:35:30;4.40;;;2.10;;
39486;SDS011;25173;50.430;18.926;2022-07-29T09:38:31;6.22;;;2.40;;
39486;SDS011;25173;50.430;18.926;2022-07-29T09:41:46;4.28;;;2.33;;
39486;SDS011;25173;50.430;18.926;2022-07-29T09:44:49;4.03;;;2.05;;
39486;SDS011;25173;50.430;18.926;2022-07-29T09:47:50;4.95;;;1.90;;
39486;SDS011;25173;50.430;18.926;2022-07-29T09:50:51;3.33;;;2.30;;
39486;SDS011;25173;50.430;18.926;2022-07-29T09:53:52;4.80;;;2.22;;
39486;SDS011;25173;50.430;18.926;2022-07-29T09:56:53;4.25;;;2.30;;
39486;SDS011;25173;50.430;18.926;2022-07-29T10:00:03;4.45;;;2.28;;
39486;SDS011;25173;50.430;18.926;2022-07-29T10:03:14;7.20;;;2.30;;
39486;SDS011;25173;50.430;18.926;2022-07-29T10:06:16;4.88;;;2.60;;
39486;SDS011;25173;50.430;18.926;2022-07-29T10:09:17;6.35;;;2.78;;
39486;SDS011;25173;50.430;18.926;2022-07-29T10:12:17;4.07;;;1.90;;
39486;SDS011;25173;50.430;18.926;2022-07-29T10:15:19;3.75;;;2.38;;
39486;SDS011;25173;50.430;18.926;2022-07-29T10:18:22;2.97;;;2.38;;
39486;SDS011;25173;50.430;18.926;2022-07-29T10:21:23;3.40;;;2.25;;
39486;SDS011;25173;50.430;18.926;2022-07-29T10:24:27;3.50;;;2.25;;
39486;SDS011;25173;50.430;18.926;2022-07-29T10:27:29;3.28;;;2.13;;
39486;SDS011;25173;50.430;18.926;2022-07-29T10:30:30;9.32;;;2.60;;
39486;SDS011;25173;50.430;18.926;2022-07-29T10:44:25;4.30;;;2.58;;
39486;SDS011;25173;50.430;18.926;2022-07-29T10:47:27;3.50;;;2.08;;
39486;SDS011;25173;50.430;18.926;2022-07-29T10:50:28;5.65;;;2.33;;
39486;SDS011;25173;50.430;18.926;2022-07-29T11:00:26;5.80;;;2.40;;
39486;SDS011;25173;50.430;18.926;2022-07-29T11:03:44;7.32;;;2.20;;
39486;SDS011;25173;50.430;18.926;2022-07-29T11:13:12;4.97;;;2.40;;
39486;SDS011;25173;50.430;18.926;2022-07-29T11:16:14;4.00;;;1.90;;
39486;SDS011;25173;50.430;18.926;2022-07-29T11:22:34;10.77;;;2.47;;
39486;SDS011;25173;50.430;18.926;2022-07-29T11:25:37;13.02;;;2.92;;
39486;SDS011;25173;50.430;18.926;2022-07-29T11:31:53;6.93;;;2.85;;
39486;SDS011;25173;50.430;18.926;2022-07-29T11:38:24;7.30;;;2.20;;
39486;SDS011;25173;50.430;18.926;2022-07-29T11:41:27;3.20;;;2.45;;
39486;SDS011;25173;50.430;18.926;2022-07-29T11:48:07;3.92;;;2.55;;
39486;SDS011;25173;50.430;18.926;2022-07-29T11:51:16;3.83;;;2.25;;
39486;SDS011;25173;50.430;18.926;2022-07-29T11:54:17;5.45;;;2.10;;
39486;SDS011;25173;50.430;18.926;2022-07-29T11:57:26;3.65;;;2.22;;
39486;SDS011;25173;50.430;18.926;2022-07-29T12:00:32;5.95;;;2.45;;
39486;SDS011;25173;50.430;18.926;2022-07-29T12:03:35;5.45;;;2.53;;
39486;SDS011;25173;50.430;18.926;2022-07-29T12:06:35;3.67;;;2.78;;
39486;SDS011;25173;50.430;18.926;2022-07-29T12:09:36;9.48;;;2.40;;
39486;SDS011;25173;50.430;18.926;2022-07-29T12:12:37;4.53;;;2.58;;
39486;SDS011;25173;50.430;18.926;2022-07-29T12:15:39;5.75;;;2.80;;
39486;SDS011;25173;50.430;18.926;2022-07-29T12:18:40;6.32;;;3.20;;
39486;SDS011;25173;50.430;18.926;2022-07-29T12:21:47;4.03;;;2.33;;
39486;SDS011;25173;50.430;18.926;2022-07-29T12:24:49;17.23;;;3.50;;
39486;SDS011;25173;50.430;18.926;2022-07-29T12:28:06;5.97;;;2.80;;
39486;SDS011;25173;50.430;18.926;2022-07-29T12:31:14;6.10;;;2.45;;
39486;SDS011;25173;50.430;18.926;2022-07-29T12:34:16;3.42;;;2.45;;
39486;SDS011;25173;50.430;18.926;2022-07-29T12:37:16;5.22;;;2.55;;
39486;SDS011;25173;50.430;18.926;2022-07-29T12:40:17;11.98;;;2.83;;
39486;SDS011;25173;50.430;18.926;2022-07-29T12:43:21;6.65;;;2.80;;
39486;SDS011;25173;50.430;18.926;2022-07-29T12:46:23;9.70;;;3.28;;
39486;SDS011;25173;50.430;18.926;2022-07-29T12:49:24;7.20;;;2.72;;
39486;SDS011;25173;50.430;18.926;2022-07-29T12:52:31;14.30;;;3.50;;
39486;SDS011;25173;50.430;18.926;2022-07-29T12:55:44;4.22;;;2.88;;
39486;SDS011;25173;50.430;18.926;2022-07-29T12:58:51;10.73;;;2.78;;
39486;SDS011;25173;50.430;18.926;2022-07-29T13:01:52;10.05;;;3.20;;
39486;SDS011;25173;50.430;18.926;2022-07-29T13:04:59;4.60;;;3.13;;
39486;SDS011;25173;50.430;18.926;2022-07-29T13:08:10;4.68;;;2.85;;
39486;SDS011;25173;50.430;18.926;2022-07-29T13:11:27;5.15;;;2.63;;
39486;SDS011;25173;50.430;18.926;2022-07-29T13:14:32;6.57;;;2.67;;
39486;SDS011;25173;50.430;18.926;2022-07-29T13:17:39;7.68;;;3.35;;
39486;SDS011;25173;50.430;18.926;2022-07-29T13:20:42;4.85;;;2.78;;
39486;SDS011;25173;50.430;18.926;2022-07-29T13:23:43;9.32;;;3.20;;
39486;SDS011;25173;50.430;18.926;2022-07-29T13:26:44;7.72;;;3.20;;
39486;SDS011;25173;50.430;18.926;2022-07-29T13:29:44;4.82;;;2.97;;
39486;SDS011;25173;50.430;18.926;2022-07-29T13:32:45;5.35;;;3.22;;
39486;SDS011;25173;50.430;18.926;2022-07-29T13:35:46;7.30;;;2.78;;
39486;SDS011;25173;50.430;18.926;2022-07-29T13:38:47;4.90;;;2.60;;
39486;SDS011;25173;50.430;18.926;2022-07-29T13:41:48;5.35;;;3.15;;
39486;SDS011;25173;50.430;18.926;2022-07-29T13:44:49;4.15;;;2.70;;
39486;SDS011;25173;50.430;18.926;2022-07-29T13:47:51;6.28;;;2.75;;
39486;SDS011;25173;50.430;18.926;2022-07-29T13:50:52;3.35;;;2.90;;
39486;SDS011;25173;50.430;18.926;2022-07-29T13:53:53;15.43;;;3.38;;
39486;SDS011;25173;50.430;18.926;2022-07-29T13:56:53;5.15;;;2.65;;
39486;SDS011;25173;50.430;18.926;2022-07-29T13:59:54;10.15;;;2.72;;
39486;SDS011;25173;50.430;18.926;2022-07-29T14:02:55;9.23;;;2.80;;
39486;SDS011;25173;50.430;18.926;2022-07-29T14:05:57;11.95;;;3.10;;
39486;SDS011;25173;50.430;18.926;2022-07-29T14:09:00;9.40;;;3.00;;
39486;SDS011;25173;50.430;18.926;2022-07-29T14:12:01;7.90;;;2.80;;
39486;SDS011;25173;50.430;18.926;2022-07-29T14:15:02;7.57;;;2.75;;
39486;SDS011;25173;50.430;18.926;2022-07-29T14:18:04;6.72;;;2.33;;
39486;SDS011;25173;50.430;18.926;2022-07-29T14:21:04;8.90;;;2.88;;
39486;SDS011;25173;50.430;18.926;2022-07-29T14:24:05;5.95;;;2.72;;
39486;SDS011;25173;50.430;18.926;2022-07-29T14:27:07;3.85;;;2.20;;
39486;SDS011;25173;50.430;18.926;2022-07-29T14:30:08;6.13;;;2.13;;
39486;SDS011;25173;50.430;18.926;2022-07-29T14:33:09;5.15;;;2.63;;
39486;SDS011;25173;50.430;18.926;2022-07-29T14:36:10;14.57;;;2.65;;
39486;SDS011;25173;50.430;18.926;2022-07-29T14:39:11;6.43;;;3.78;;
39486;SDS011;25173;50.430;18.926;2022-07-29T14:42:12;12.73;;;2.83;;
39486;SDS011;25173;50.430;18.926;2022-07-29T14:45:13;12.73;;;3.00;;
39486;SDS011;25173;50.430;18.926;2022-07-29T14:48:14;5.72;;;2.60;;
39486;SDS011;25173;50.430;18.926;2022-07-29T14:51:15;3.75;;;2.60;;
39486;SDS011;25173;50.430;18.926;2022-07-29T14:54:15;4.32;;;2.72;;
39486;SDS011;25173;50.430;18.926;2022-07-29T14:57:16;4.57;;;2.38;;
39486;SDS011;25173;50.430;18.926;2022-07-29T15:00:17;4.38;;;2.20;;
39486;SDS011;25173;50.430;18.926;2022-07-29T15:03:18;2.75;;;2.10;;
39486;SDS011;25173;50.430;18.926;2022-07-29T15:06:18;4.80;;;2.95;;
39486;SDS011;25173;50.430;18.926;2022-07-29T15:09:19;5.88;;;3.08;;
39486;SDS011;25173;50.430;18.926;2022-07-29T15:12:21;7.28;;;3.53;;
39486;SDS011;25173;50.430;18.926;2022-07-29T15:15:21;9.70;;;2.70;;
39486;SDS011;25173;50.430;18.926;2022-07-29T15:18:22;5.07;;;2.50;;
39486;SDS011;25173;50.430;18.926;2022-07-29T15:21:23;7.93;;;2.88;;
39486;SDS011;25173;50.430;18.926;2022-07-29T15:24:24;8.07;;;3.10;;
39486;SDS011;25173;50.430;18.926;2022-07-29T15:27:25;8.55;;;2.72;;
39486;SDS011;25173;50.430;18.926;2022-07-29T15:30:25;4.18;;;2.70;;
39486;SDS011;25173;50.430;18.926;2022-07-29T15:33:26;3.75;;;3.45;;
39486;SDS011;25173;50.430;18.926;2022-07-29T15:36:27;6.90;;;2.92;;
39486;SDS011;25173;50.430;18.926;2022-07-29T15:39:28;14.15;;;3.63;;
39486;SDS011;25173;50.430;18.926;2022-07-29T15:42:29;5.90;;;3.15;;
39486;SDS011;25173;50.430;18.926;2022-07-29T15:45:31;10.52;;;3.45;;
39486;SDS011;25173;50.430;18.926;2022-07-29T15:48:39;12.30;;;3.22;;
39486;SDS011;25173;50.430;18.926;2022-07-29T15:51:40;4.65;;;2.72;;
39486;SDS011;25173;50.430;18.926;2022-07-29T15:54:40;6.32;;;3.08;;
39486;SDS011;25173;50.430;18.926;2022-07-29T15:57:41;10.05;;;2.60;;
39486;SDS011;25173;50.430;18.926;2022-07-29T16:00:42;6.35;;;2.70;;
39486;SDS011;25173;50.430;18.926;2022-07-29T16:03:43;8.35;;;2.92;;
39486;SDS011;25173;50.430;18.926;2022-07-29T16:06:44;5.65;;;3.00;;
39486;SDS011;25173;50.430;18.926;2022-07-29T16:09:46;3.20;;;2.50;;
39486;SDS011;25173;50.430;18.926;2022-07-29T16:12:47;5.80;;;3.40;;
39486;SDS011;25173;50.430;18.926;2022-07-29T16:15:47;3.53;;;3.20;;
39486;SDS011;25173;50.430;18.926;2022-07-29T16:18:48;5.05;;;2.60;;
39486;SDS011;25173;50.430;18.926;2022-07-29T16:21:49;6.70;;;3.58;;
39486;SDS011;25173;50.430;18.926;2022-07-29T16:24:50;9.77;;;3.00;;
39486;SDS011;25173;50.430;18.926;2022-07-29T16:27:50;13.27;;;4.75;;
39486;SDS011;25173;50.430;18.926;2022-07-29T16:30:51;7.57;;;3.67;;
39486;SDS011;25173;50.430;18.926;2022-07-29T16:33:52;8.70;;;3.95;;
39486;SDS011;25173;50.430;18.926;2022-07-29T16:36:53;6.70;;;3.45;;
39486;SDS011;25173;50.430;18.926;2022-07-29T16:39:53;6.60;;;4.15;;
39486;SDS011;25173;50.430;18.926;2022-07-29T16:42:54;7.00;;;4.18;;
39486;SDS011;25173;50.430;18.926;2022-07-29T16:45:55;8.95;;;4.68;;
39486;SDS011;25173;50.430;18.926;2022-07-29T16:48:55;8.88;;;5.00;;
39486;SDS011;25173;50.430;18.926;2022-07-29T16:51:56;10.13;;;4.65;;
39486;SDS011;25173;50.430;18.926;2022-07-29T16:54:57;12.57;;;4.85;;
39486;SDS011;25173;50.430;18.926;2022-07-29T16:57:57;7.03;;;4.07;;
39486;SDS011;25173;50.430;18.926;2022-07-29T17:00:58;10.45;;;4.80;;
39486;SDS011;25173;50.430;18.926;2022-07-29T17:03:59;5.13;;;3.78;;
39486;SDS011;25173;50.430;18.926;2022-07-29T17:07:05;7.72;;;3.97;;
39486;SDS011;25173;50.430;18.926;2022-07-29T17:10:06;7.50;;;4.32;;
39486;SDS011;25173;50.430;18.926;2022-07-29T17:13:09;10.70;;;4.40;;
39486;SDS011;25173;50.430;18.926;2022-07-29T17:16:10;5.88;;;4.32;;
39486;SDS011;25173;50.430;18.926;2022-07-29T17:19:11;5.55;;;4.13;;
39486;SDS011;25173;50.430;18.926;2022-07-29T17:22:11;7.82;;;4.93;;
39486;SDS011;25173;50.430;18.926;2022-07-29T17:25:12;5.20;;;4.60;;
39486;SDS011;25173;50.430;18.926;2022-07-29T17:28:13;7.82;;;4.97;;
39486;SDS011;25173;50.430;18.926;2022-07-29T17:31:14;7.60;;;4.47;;
39486;SDS011;25173;50.430;18.926;2022-07-29T17:34:16;11.20;;;5.60;;
39486;SDS011;25173;50.430;18.926;2022-07-29T17:37:17;5.57;;;4.57;;
39486;SDS011;25173;50.430;18.926;2022-07-29T17:40:17;7.65;;;5.05;;
39486;SDS011;25173;50.430;18.926;2022-07-29T17:43:18;9.43;;;4.43;;
39486;SDS011;25173;50.430;18.926;2022-07-29T17:46:19;7.00;;;4.35;;
39486;SDS011;25173;50.430;18.926;2022-07-29T17:49:23;5.32;;;3.95;;
39486;SDS011;25173;50.430;18.926;2022-07-29T17:52:23;5.40;;;4.63;;
39486;SDS011;25173;50.430;18.926;2022-07-29T17:55:24;12.45;;;4.57;;
39486;SDS011;25173;50.430;18.926;2022-07-29T17:58:25;5.82;;;4.13;;
39486;SDS011;25173;50.430;18.926;2022-07-29T18:01:26;7.78;;;4.57;;
39486;SDS011;25173;50.430;18.926;2022-07-29T18:04:27;9.00;;;4.38;;
39486;SDS011;25173;50.430;18.926;2022-07-29T18:07:30;11.15;;;4.50;;
39486;SDS011;25173;50.430;18.926;2022-07-29T18:10:31;6.25;;;4.70;;
39486;SDS011;25173;50.430;18.926;2022-07-29T18:13:32;5.65;;;4.30;;
39486;SDS011;25173;50.430;18.926;2022-07-29T18:16:32;7.32;;;4.63;;
39486;SDS011;25173;50.430;18.926;2022-07-29T18:19:33;6.82;;;4.70;;
39486;SDS011;25173;50.430;18.926;2022-07-29T18:22:34;7.32;;;4.30;;
39486;SDS011;25173;50.430;18.926;2022-07-29T18:25:34;8.45;;;4.47;;
39486;SDS011;25173;50.430;18.926;2022-07-29T18:28:35;9.52;;;4.30;;
39486;SDS011;25173;50.430;18.926;2022-07-29T18:31:36;6.53;;;4.55;;
39486;SDS011;25173;50.430;18.926;2022-07-29T18:34:37;6.05;;;4.28;;
39486;SDS011;25173;50.430;18.926;2022-07-29T18:37:37;6.90;;;4.70;;
39486;SDS011;25173;50.430;18.926;2022-07-29T18:40:38;7.40;;;4.47;;
39486;SDS011;25173;50.430;18.926;2022-07-29T18:43:41;9.45;;;4.20;;
39486;SDS011;25173;50.430;18.926;2022-07-29T18:46:42;8.88;;;5.32;;
39486;SDS011;25173;50.430;18.926;2022-07-29T18:49:43;7.05;;;4.22;;